sensor_id;sensor_type;location;lat;lon;timestamp;P1;durP1;ratioP1;P2;durP2;ratioP2
59161;SDS011;44942;48.936;8.260;2023-03-31T00:02:33;5.70;;;4.13;;
59161;SDS011;44942;48.936;8.260;2023-03-31T00:07:36;7.28;;;4.90;;
59161;SDS011;44942;48.936;8.260;2023-03-31T00:12:39;6.60;;;4.38;;
59161;SDS011;44942;48.936;8.260;2023-03-31T00:17:40;5.03;;;4.20;;
59161;SDS011;44942;48.936;8.260;2023-03-31T00:22:42;5.32;;;4.47;;
59161;SDS011;44942;48.936;8.260;2023-03-31T00:27:45;4.97;;;3.78;;
59161;SDS011;44942;48.936;8.260;2023-03-31T00:32:49;4.60;;;3.20;;
59161;SDS011;44942;48.936;8.260;2023-03-31T00:37:49;3.27;;;2.97;;
59161;SDS011;44942;48.936;8.260;2023-03-31T00:42:50;4.20;;;3.07;;
59161;SDS011;44942;48.936;8.260;2023-03-31T00:48:00;4.70;;;3.40;;
59161;SDS011;44942;48.936;8.260;2023-03-31T00:53:10;5.28;;;3.40;;
59161;SDS011;44942;48.936;8.260;2023-03-31T00:58:14;4.47;;;3.30;;
59161;SDS011;44942;48.936;8.260;2023-03-31T01:03:19;3.85;;;3.03;;
59161;SDS011;44942;48.936;8.260;2023-03-31T01:08:22;4.50;;;3.05;;
59161;SDS011;44942;48.936;8.260;2023-03-31T01:13:26;3.90;;;2.95;;
59161;SDS011;44942;48.936;8.260;2023-03-31T01:18:28;4.82;;;3.17;;
59161;SDS011;44942;48.936;8.260;2023-03-31T01:28:58;4.22;;;3.10;;
59161;SDS011;44942;48.936;8.260;2023-03-31T01:45:00;4.55;;;2.53;;
59161;SDS011;44942;48.936;8.260;2023-03-31T01:50:21;4.35;;;2.40;;
59161;SDS011;44942;48.936;8.260;2023-03-31T02:00:48;4.05;;;2.30;;
59161;SDS011;44942;48.936;8.260;2023-03-31T02:05:58;3.70;;;2.00;;
59161;SDS011;44942;48.936;8.260;2023-03-31T02:11:04;3.17;;;2.13;;
59161;SDS011;44942;48.936;8.260;2023-03-31T02:16:05;5.33;;;2.40;;
59161;SDS011;44942;48.936;8.260;2023-03-31T02:21:09;4.22;;;2.10;;
59161;SDS011;44942;48.936;8.260;2023-03-31T02:26:13;4.07;;;2.40;;
59161;SDS011;44942;48.936;8.260;2023-03-31T02:31:42;4.90;;;1.92;;
59161;SDS011;44942;48.936;8.260;2023-03-31T02:36:39;3.20;;;2.00;;
59161;SDS011;44942;48.936;8.260;2023-03-31T02:41:41;3.55;;;2.33;;
59161;SDS011;44942;48.936;8.260;2023-03-31T02:46:42;4.50;;;2.67;;
59161;SDS011;44942;48.936;8.260;2023-03-31T03:08:06;3.40;;;2.50;;
59161;SDS011;44942;48.936;8.260;2023-03-31T03:13:29;3.65;;;2.20;;
59161;SDS011;44942;48.936;8.260;2023-03-31T03:18:35;4.53;;;2.20;;
59161;SDS011;44942;48.936;8.260;2023-03-31T03:23:36;5.38;;;2.40;;
59161;SDS011;44942;48.936;8.260;2023-03-31T03:28:36;2.33;;;2.10;;
59161;SDS011;44942;48.936;8.260;2023-03-31T03:33:37;3.70;;;2.40;;
59161;SDS011;44942;48.936;8.260;2023-03-31T03:38:37;3.43;;;2.47;;
59161;SDS011;44942;48.936;8.260;2023-03-31T03:43:38;2.10;;;1.90;;
59161;SDS011;44942;48.936;8.260;2023-03-31T03:48:38;3.17;;;2.30;;
59161;SDS011;44942;48.936;8.260;2023-03-31T03:53:39;2.70;;;2.30;;
59161;SDS011;44942;48.936;8.260;2023-03-31T03:58:39;2.40;;;1.90;;
59161;SDS011;44942;48.936;8.260;2023-03-31T04:03:40;3.87;;;2.60;;
59161;SDS011;44942;48.936;8.260;2023-03-31T04:08:41;4.53;;;2.20;;
59161;SDS011;44942;48.936;8.260;2023-03-31T04:13:41;3.40;;;2.37;;
59161;SDS011;44942;48.936;8.260;2023-03-31T04:23:43;2.43;;;1.90;;
59161;SDS011;44942;48.936;8.260;2023-03-31T04:28:46;3.00;;;2.63;;
59161;SDS011;44942;48.936;8.260;2023-03-31T04:33:52;4.88;;;3.13;;
59161;SDS011;44942;48.936;8.260;2023-03-31T04:38:53;4.18;;;3.10;;
59161;SDS011;44942;48.936;8.260;2023-03-31T04:43:55;4.28;;;3.20;;
59161;SDS011;44942;48.936;8.260;2023-03-31T04:48:55;4.53;;;2.97;;
59161;SDS011;44942;48.936;8.260;2023-03-31T04:53:57;4.50;;;2.97;;
59161;SDS011;44942;48.936;8.260;2023-03-31T04:58:58;4.33;;;2.57;;
59161;SDS011;44942;48.936;8.260;2023-03-31T05:03:58;4.27;;;2.73;;
59161;SDS011;44942;48.936;8.260;2023-03-31T05:08:59;5.23;;;2.43;;
59161;SDS011;44942;48.936;8.260;2023-03-31T05:14:00;3.50;;;2.67;;
59161;SDS011;44942;48.936;8.260;2023-03-31T05:19:01;3.83;;;2.80;;
59161;SDS011;44942;48.936;8.260;2023-03-31T05:24:02;4.38;;;2.55;;
59161;SDS011;44942;48.936;8.260;2023-03-31T05:34:04;4.17;;;2.20;;
59161;SDS011;44942;48.936;8.260;2023-03-31T05:39:05;4.60;;;2.38;;
59161;SDS011;44942;48.936;8.260;2023-03-31T05:44:07;3.38;;;2.50;;
59161;SDS011;44942;48.936;8.260;2023-03-31T05:49:07;5.20;;;2.57;;
59161;SDS011;44942;48.936;8.260;2023-03-31T05:54:08;4.45;;;2.40;;
59161;SDS011;44942;48.936;8.260;2023-03-31T05:59:09;3.00;;;2.10;;
59161;SDS011;44942;48.936;8.260;2023-03-31T06:04:10;3.30;;;2.20;;
59161;SDS011;44942;48.936;8.260;2023-03-31T06:09:10;3.10;;;2.40;;
59161;SDS011;44942;48.936;8.260;2023-03-31T06:14:11;5.13;;;2.40;;
59161;SDS011;44942;48.936;8.260;2023-03-31T06:19:12;3.90;;;2.40;;
59161;SDS011;44942;48.936;8.260;2023-03-31T06:24:13;4.90;;;2.35;;
59161;SDS011;44942;48.936;8.260;2023-03-31T06:29:13;10.50;;;3.60;;
59161;SDS011;44942;48.936;8.260;2023-03-31T06:34:14;12.57;;;3.10;;
59161;SDS011;44942;48.936;8.260;2023-03-31T06:39:14;8.57;;;2.93;;
59161;SDS011;44942;48.936;8.260;2023-03-31T06:44:15;5.90;;;2.60;;
59161;SDS011;44942;48.936;8.260;2023-03-31T06:49:18;6.25;;;2.63;;
59161;SDS011;44942;48.936;8.260;2023-03-31T06:54:18;14.17;;;3.50;;
59161;SDS011;44942;48.936;8.260;2023-03-31T06:59:19;8.03;;;2.70;;
59161;SDS011;44942;48.936;8.260;2023-03-31T07:04:20;4.83;;;2.80;;
59161;SDS011;44942;48.936;8.260;2023-03-31T07:09:20;6.23;;;2.90;;
59161;SDS011;44942;48.936;8.260;2023-03-31T07:14:22;3.60;;;2.45;;
59161;SDS011;44942;48.936;8.260;2023-03-31T07:19:23;11.17;;;2.97;;
59161;SDS011;44942;48.936;8.260;2023-03-31T07:24:23;7.90;;;2.77;;
59161;SDS011;44942;48.936;8.260;2023-03-31T07:29:24;8.47;;;2.70;;
59161;SDS011;44942;48.936;8.260;2023-03-31T07:34:25;8.27;;;2.90;;
59161;SDS011;44942;48.936;8.260;2023-03-31T07:39:26;7.45;;;2.70;;
59161;SDS011;44942;48.936;8.260;2023-03-31T07:44:26;6.67;;;2.77;;
59161;SDS011;44942;48.936;8.260;2023-03-31T07:49:27;4.87;;;2.70;;
59161;SDS011;44942;48.936;8.260;2023-03-31T07:54:27;3.53;;;2.30;;
59161;SDS011;44942;48.936;8.260;2023-03-31T07:59:28;5.23;;;2.80;;
59161;SDS011;44942;48.936;8.260;2023-03-31T08:04:30;3.55;;;2.17;;
59161;SDS011;44942;48.936;8.260;2023-03-31T08:09:30;4.93;;;2.47;;
59161;SDS011;44942;48.936;8.260;2023-03-31T08:14:31;7.40;;;2.70;;
59161;SDS011;44942;48.936;8.260;2023-03-31T08:19:32;7.45;;;2.60;;
59161;SDS011;44942;48.936;8.260;2023-03-31T08:24:32;5.80;;;2.70;;
59161;SDS011;44942;48.936;8.260;2023-03-31T08:29:33;5.37;;;2.50;;
59161;SDS011;44942;48.936;8.260;2023-03-31T08:34:34;5.10;;;2.60;;
59161;SDS011;44942;48.936;8.260;2023-03-31T08:49:59;4.97;;;2.45;;
59161;SDS011;44942;48.936;8.260;2023-03-31T08:55:06;5.97;;;2.50;;
59161;SDS011;44942;48.936;8.260;2023-03-31T09:00:15;5.63;;;2.75;;
59161;SDS011;44942;48.936;8.260;2023-03-31T09:10:42;4.70;;;2.47;;
59161;SDS011;44942;48.936;8.260;2023-03-31T09:16:01;5.20;;;2.70;;
59161;SDS011;44942;48.936;8.260;2023-03-31T09:21:27;4.80;;;2.63;;
59161;SDS011;44942;48.936;8.260;2023-03-31T09:26:44;4.88;;;2.60;;
59161;SDS011;44942;48.936;8.260;2023-03-31T09:31:52;5.40;;;2.50;;
59161;SDS011;44942;48.936;8.260;2023-03-31T09:36:53;3.17;;;2.20;;
59161;SDS011;44942;48.936;8.260;2023-03-31T09:41:54;3.45;;;2.30;;
59161;SDS011;44942;48.936;8.260;2023-03-31T09:46:55;4.82;;;2.70;;
59161;SDS011;44942;48.936;8.260;2023-03-31T09:57:27;3.40;;;2.38;;
59161;SDS011;44942;48.936;8.260;2023-03-31T10:02:36;4.07;;;2.47;;
59161;SDS011;44942;48.936;8.260;2023-03-31T10:07:39;3.42;;;2.50;;
59161;SDS011;44942;48.936;8.260;2023-03-31T10:12:40;3.40;;;2.17;;
59161;SDS011;44942;48.936;8.260;2023-03-31T10:17:41;5.60;;;2.22;;
59161;SDS011;44942;48.936;8.260;2023-03-31T10:22:43;3.28;;;2.22;;
59161;SDS011;44942;48.936;8.260;2023-03-31T10:27:46;3.95;;;2.00;;
59161;SDS011;44942;48.936;8.260;2023-03-31T10:32:50;5.78;;;2.65;;
59161;SDS011;44942;48.936;8.260;2023-03-31T10:37:53;6.30;;;2.53;;
59161;SDS011;44942;48.936;8.260;2023-03-31T10:43:01;4.38;;;2.33;;
59161;SDS011;44942;48.936;8.260;2023-03-31T10:48:20;4.43;;;2.38;;
59161;SDS011;44942;48.936;8.260;2023-03-31T10:53:25;4.00;;;2.10;;
59161;SDS011;44942;48.936;8.260;2023-03-31T10:58:47;3.83;;;2.30;;
59161;SDS011;44942;48.936;8.260;2023-03-31T11:09:36;4.35;;;2.08;;
59161;SDS011;44942;48.936;8.260;2023-03-31T11:14:51;5.25;;;2.20;;
59161;SDS011;44942;48.936;8.260;2023-03-31T11:51:25;3.53;;;1.80;;
59161;SDS011;44942;48.936;8.260;2023-03-31T11:56:34;2.53;;;1.70;;
59161;SDS011;44942;48.936;8.260;2023-03-31T12:01:49;3.00;;;1.80;;
59161;SDS011;44942;48.936;8.260;2023-03-31T12:07:22;3.28;;;1.80;;
59161;SDS011;44942;48.936;8.260;2023-03-31T12:12:25;2.70;;;1.60;;
59161;SDS011;44942;48.936;8.260;2023-03-31T12:17:28;2.10;;;1.60;;
59161;SDS011;44942;48.936;8.260;2023-03-31T12:22:39;2.95;;;1.77;;
59161;SDS011;44942;48.936;8.260;2023-03-31T12:27:44;2.90;;;1.73;;
59161;SDS011;44942;48.936;8.260;2023-03-31T12:32:53;4.47;;;1.92;;
59161;SDS011;44942;48.936;8.260;2023-03-31T12:49:04;3.55;;;1.70;;
59161;SDS011;44942;48.936;8.260;2023-03-31T12:54:30;3.22;;;1.60;;
59161;SDS011;44942;48.936;8.260;2023-03-31T13:16:08;3.38;;;1.50;;
59161;SDS011;44942;48.936;8.260;2023-03-31T13:21:09;3.17;;;1.30;;
59161;SDS011;44942;48.936;8.260;2023-03-31T13:37:16;2.38;;;1.20;;
59161;SDS011;44942;48.936;8.260;2023-03-31T13:48:36;3.05;;;1.60;;
59161;SDS011;44942;48.936;8.260;2023-03-31T13:53:47;3.58;;;1.13;;
59161;SDS011;44942;48.936;8.260;2023-03-31T14:04:37;7.97;;;1.40;;
59161;SDS011;44942;48.936;8.260;2023-03-31T14:09:52;5.95;;;1.33;;
59161;SDS011;44942;48.936;8.260;2023-03-31T14:14:53;2.83;;;1.30;;
59161;SDS011;44942;48.936;8.260;2023-03-31T14:20:00;2.90;;;1.30;;
59161;SDS011;44942;48.936;8.260;2023-03-31T14:25:58;3.78;;;1.33;;
59161;SDS011;44942;48.936;8.260;2023-03-31T14:30:58;4.78;;;1.35;;
59161;SDS011;44942;48.936;8.260;2023-03-31T14:36:20;2.75;;;1.10;;
59161;SDS011;44942;48.936;8.260;2023-03-31T14:41:27;2.10;;;1.25;;
59161;SDS011;44942;48.936;8.260;2023-03-31T14:46:37;2.45;;;1.20;;
59161;SDS011;44942;48.936;8.260;2023-03-31T14:51:41;3.47;;;1.15;;
59161;SDS011;44942;48.936;8.260;2023-03-31T14:56:43;3.83;;;1.33;;
59161;SDS011;44942;48.936;8.260;2023-03-31T15:01:48;2.67;;;1.23;;
59161;SDS011;44942;48.936;8.260;2023-03-31T15:06:50;2.33;;;1.10;;
59161;SDS011;44942;48.936;8.260;2023-03-31T15:11:59;1.98;;;1.10;;
59161;SDS011;44942;48.936;8.260;2023-03-31T15:17:02;2.15;;;1.15;;
59161;SDS011;44942;48.936;8.260;2023-03-31T15:22:15;1.98;;;1.10;;
59161;SDS011;44942;48.936;8.260;2023-03-31T15:32:42;2.17;;;1.08;;
59161;SDS011;44942;48.936;8.260;2023-03-31T15:37:43;2.83;;;1.33;;
59161;SDS011;44942;48.936;8.260;2023-03-31T15:42:44;2.10;;;1.10;;
59161;SDS011;44942;48.936;8.260;2023-03-31T15:47:49;3.03;;;1.10;;
59161;SDS011;44942;48.936;8.260;2023-03-31T15:52:52;2.65;;;1.27;;
59161;SDS011;44942;48.936;8.260;2023-03-31T15:57:54;2.63;;;1.10;;
59161;SDS011;44942;48.936;8.260;2023-03-31T16:02:57;3.08;;;1.17;;
59161;SDS011;44942;48.936;8.260;2023-03-31T16:08:02;2.25;;;1.10;;
59161;SDS011;44942;48.936;8.260;2023-03-31T16:13:10;7.30;;;1.25;;
59161;SDS011;44942;48.936;8.260;2023-03-31T16:18:25;2.33;;;1.20;;
59161;SDS011;44942;48.936;8.260;2023-03-31T16:23:34;2.70;;;1.00;;
59161;SDS011;44942;48.936;8.260;2023-03-31T16:28:39;2.45;;;1.10;;
59161;SDS011;44942;48.936;8.260;2023-03-31T16:33:54;1.63;;;1.00;;
59161;SDS011;44942;48.936;8.260;2023-03-31T16:38:55;3.20;;;1.08;;
59161;SDS011;44942;48.936;8.260;2023-03-31T16:43:58;2.55;;;1.10;;
59161;SDS011;44942;48.936;8.260;2023-03-31T16:48:58;3.20;;;1.05;;
59161;SDS011;44942;48.936;8.260;2023-03-31T16:53:59;2.83;;;1.20;;
59161;SDS011;44942;48.936;8.260;2023-03-31T16:59:00;2.00;;;1.03;;
59161;SDS011;44942;48.936;8.260;2023-03-31T17:04:01;2.78;;;1.00;;
59161;SDS011;44942;48.936;8.260;2023-03-31T17:09:01;3.83;;;1.33;;
59161;SDS011;44942;48.936;8.260;2023-03-31T17:14:02;40.77;;;16.00;;
59161;SDS011;44942;48.936;8.260;2023-03-31T17:19:04;59.15;;;18.95;;
59161;SDS011;44942;48.936;8.260;2023-03-31T17:24:05;47.17;;;16.47;;
59161;SDS011;44942;48.936;8.260;2023-03-31T17:29:06;52.10;;;17.67;;
59161;SDS011;44942;48.936;8.260;2023-03-31T17:34:06;62.83;;;22.87;;
59161;SDS011;44942;48.936;8.260;2023-03-31T17:39:07;74.33;;;22.43;;
59161;SDS011;44942;48.936;8.260;2023-03-31T17:44:08;67.93;;;22.53;;
59161;SDS011;44942;48.936;8.260;2023-03-31T17:49:08;57.30;;;20.80;;
59161;SDS011;44942;48.936;8.260;2023-03-31T17:54:10;63.67;;;20.88;;
59161;SDS011;44942;48.936;8.260;2023-03-31T17:59:10;60.47;;;21.07;;
59161;SDS011;44942;48.936;8.260;2023-03-31T18:04:11;54.03;;;19.23;;
59161;SDS011;44942;48.936;8.260;2023-03-31T18:14:13;61.70;;;19.33;;
59161;SDS011;44942;48.936;8.260;2023-03-31T18:19:14;49.37;;;17.60;;
59161;SDS011;44942;48.936;8.260;2023-03-31T18:24:15;58.10;;;18.60;;
59161;SDS011;44942;48.936;8.260;2023-03-31T18:29:17;54.45;;;17.35;;
59161;SDS011;44942;48.936;8.260;2023-03-31T18:34:18;46.27;;;17.23;;
59161;SDS011;44942;48.936;8.260;2023-03-31T18:39:18;46.90;;;16.03;;
59161;SDS011;44942;48.936;8.260;2023-03-31T18:44:19;43.80;;;15.73;;
59161;SDS011;44942;48.936;8.260;2023-03-31T18:49:20;45.80;;;15.02;;
59161;SDS011;44942;48.936;8.260;2023-03-31T18:54:21;44.90;;;14.53;;
59161;SDS011;44942;48.936;8.260;2023-03-31T18:59:22;40.40;;;14.23;;
59161;SDS011;44942;48.936;8.260;2023-03-31T19:04:23;47.42;;;14.27;;
59161;SDS011;44942;48.936;8.260;2023-03-31T19:09:23;43.17;;;13.37;;
59161;SDS011;44942;48.936;8.260;2023-03-31T19:14:26;42.35;;;13.75;;
59161;SDS011;44942;48.936;8.260;2023-03-31T19:19:27;39.57;;;12.50;;
59161;SDS011;44942;48.936;8.260;2023-03-31T19:24:27;39.00;;;12.83;;
59161;SDS011;44942;48.936;8.260;2023-03-31T19:29:28;33.43;;;11.67;;
59161;SDS011;44942;48.936;8.260;2023-03-31T19:34:30;38.80;;;12.60;;
59161;SDS011;44942;48.936;8.260;2023-03-31T19:39:31;32.73;;;11.77;;
59161;SDS011;44942;48.936;8.260;2023-03-31T19:44:31;38.53;;;12.17;;
59161;SDS011;44942;48.936;8.260;2023-03-31T19:49:32;32.27;;;11.63;;
59161;SDS011;44942;48.936;8.260;2023-03-31T19:54:33;29.75;;;11.88;;
59161;SDS011;44942;48.936;8.260;2023-03-31T19:59:36;29.17;;;10.80;;
59161;SDS011;44942;48.936;8.260;2023-03-31T20:04:37;29.17;;;10.40;;
59161;SDS011;44942;48.936;8.260;2023-03-31T20:09:38;25.77;;;10.38;;
59161;SDS011;44942;48.936;8.260;2023-03-31T20:14:39;30.30;;;10.67;;
59161;SDS011;44942;48.936;8.260;2023-03-31T20:19:39;26.53;;;9.80;;
59161;SDS011;44942;48.936;8.260;2023-03-31T20:24:43;25.95;;;9.70;;
59161;SDS011;44942;48.936;8.260;2023-03-31T20:29:44;28.05;;;9.07;;
59161;SDS011;44942;48.936;8.260;2023-03-31T20:34:45;32.87;;;10.47;;
59161;SDS011;44942;48.936;8.260;2023-03-31T20:39:46;22.43;;;9.03;;
59161;SDS011;44942;48.936;8.260;2023-03-31T20:49:47;21.23;;;8.63;;
59161;SDS011;44942;48.936;8.260;2023-03-31T20:59:50;21.67;;;8.50;;
59161;SDS011;44942;48.936;8.260;2023-03-31T21:04:50;22.67;;;7.83;;
59161;SDS011;44942;48.936;8.260;2023-03-31T21:09:52;24.95;;;9.10;;
59161;SDS011;44942;48.936;8.260;2023-03-31T21:14:52;19.67;;;7.80;;
59161;SDS011;44942;48.936;8.260;2023-03-31T21:19:53;20.20;;;7.53;;
59161;SDS011;44942;48.936;8.260;2023-03-31T21:24:54;18.73;;;7.60;;
59161;SDS011;44942;48.936;8.260;2023-03-31T21:29:55;18.42;;;7.18;;
59161;SDS011;44942;48.936;8.260;2023-03-31T21:34:56;18.48;;;6.97;;
59161;SDS011;44942;48.936;8.260;2023-03-31T21:39:57;15.50;;;6.38;;
59161;SDS011;44942;48.936;8.260;2023-03-31T21:44:57;15.83;;;6.70;;
59161;SDS011;44942;48.936;8.260;2023-03-31T21:49:58;16.30;;;6.43;;
59161;SDS011;44942;48.936;8.260;2023-03-31T21:54:59;14.90;;;6.47;;
59161;SDS011;44942;48.936;8.260;2023-03-31T22:00:00;18.77;;;6.53;;
59161;SDS011;44942;48.936;8.260;2023-03-31T22:05:01;18.70;;;6.23;;
59161;SDS011;44942;48.936;8.260;2023-03-31T22:10:03;14.85;;;6.30;;
59161;SDS011;44942;48.936;8.260;2023-03-31T22:15:04;14.63;;;6.28;;
59161;SDS011;44942;48.936;8.260;2023-03-31T22:20:06;12.30;;;5.45;;
59161;SDS011;44942;48.936;8.260;2023-03-31T22:30:08;12.67;;;5.23;;
59161;SDS011;44942;48.936;8.260;2023-03-31T22:35:08;10.40;;;4.10;;
59161;SDS011;44942;48.936;8.260;2023-03-31T22:40:10;9.20;;;4.25;;
59161;SDS011;44942;48.936;8.260;2023-03-31T22:45:10;9.93;;;4.30;;
59161;SDS011;44942;48.936;8.260;2023-03-31T22:50:11;9.80;;;4.67;;
59161;SDS011;44942;48.936;8.260;2023-03-31T22:55:11;12.13;;;4.90;;
59161;SDS011;44942;48.936;8.260;2023-03-31T23:00:12;9.03;;;4.60;;
59161;SDS011;44942;48.936;8.260;2023-03-31T23:05:13;12.32;;;4.93;;
59161;SDS011;44942;48.936;8.260;2023-03-31T23:10:13;10.33;;;4.37;;
59161;SDS011;44942;48.936;8.260;2023-03-31T23:15:14;11.73;;;4.53;;
59161;SDS011;44942;48.936;8.260;2023-03-31T23:20:15;12.10;;;4.67;;
59161;SDS011;44942;48.936;8.260;2023-03-31T23:25:16;9.18;;;4.13;;
59161;SDS011;44942;48.936;8.260;2023-03-31T23:30:16;11.43;;;4.53;;
59161;SDS011;44942;48.936;8.260;2023-03-31T23:35:17;8.40;;;3.90;;
59161;SDS011;44942;48.936;8.260;2023-03-31T23:40:17;8.07;;;3.70;;
59161;SDS011;44942;48.936;8.260;2023-03-31T23:45:18;8.83;;;3.60;;
59161;SDS011;44942;48.936;8.260;2023-03-31T23:50:19;8.50;;;4.27;;
59161;SDS011;44942;48.936;8.260;2023-03-31T23:55:19;10.47;;;4.43;;
